x

Ne St Martin - 330 Nm Ne St Martin Is (41044) Wave Buoy

10:50pm - Thu 26th Mar 2015 All times are UTC.

  • Sig Wave height 4.6ft
  • Swell Direction
  • Peak Period 12s
  • Average Period 7s
  • Wind
    7mph, 11mph gusts
  • Sea Temp 79°f
  • Air Temp 77°f
  • Sea Pressure 1020mb

More Historic Weather Station data

Upgrade to MSW Pro to gain access to the past 30 days of data for over 8000 Wavebouys and Weather Stations around the globe.

Join Pro

Comparision Forecast

View Surf forecast
   
Thu 03/26 10:50pm 4.5ft 12s 7s 7 11 mph 1020mb 79f 77f
9:50pm 4.5ft 10s 7s 9 11 mph 1019.5mb 79f 77f
8:50pm 4.5ft 12s 7s 9 11 mph 1019.1mb 79f 77f
7:50pm 4.5ft 11s 7s 7 9 mph 1018.8mb 79f 78f
6:50pm 5ft 11s 7s 9 11 mph 1018.9mb 79f 78f
5:50pm 4.5ft 11s 7s 9
mph
1019.1mb 79f 78f
4:50pm 4.5ft 12s 7s 9 11 mph 1019.6mb 79f 77f
3:50pm 4.5ft 10s 7s 9
mph
1020.2mb 79f 77f
2:50pm 4.5ft 11s 7s 9 11 mph 1020.6mb 79f 77f
1:50pm 4.5ft 12s 7s 9 11 mph 1020.6mb 78f 77f
12:50pm 4.5ft 12s 7s 9 11 mph 1020.1mb 78f 77f
11:50am 4.5ft 11s 7s 9 11 mph 1019.7mb 78f 77f
10:50am 4.5ft 11s 7s 11 13 mph 1019.2mb 78f 77f
9:50am 4.5ft 11s 7s 9 11 mph 1018.6mb 78f 76f
8:50am 4.5ft 11s 7s 9 11 mph 1018.2mb 78f 76f
7:50am 4.5ft 11s 7s 11 13 mph 1018.3mb 78f 76f
6:50am 4.5ft 8s 7s 9 11 mph 1018.7mb 78f 76f
5:50am 4.5ft 11s 7s 9 11 mph 1019.1mb 78f 76f
4:50am 4.5ft 8s 7s 9 11 mph 1019.6mb 78f 76f
3:50am 4.5ft 11s 7s 7 11 mph 1020.2mb 78f 76f
2:50am 4.5ft 10s 7s 9 11 mph 1020.5mb 78f 77f
1:50am 4.5ft 12s 7s 7 9 mph 1021mb 78f 77f
12:50am 4.5ft 11s 7s 7 9 mph 1020.9mb 79f 77f
Wed 03/25 11:50pm 5ft 11s 7s 4 7 mph 1020.3mb 79f 77f
10:50pm 5ft 11s 7s 4 7 mph 1019.9mb 79f 77f
9:50pm 5ft 11s 7s 4 7 mph 1019.4mb 79f 78f
8:50pm 5ft 11s 7s  -  2 mph 1019.2mb 79f 78f
7:50pm 4.5ft 11s 7s 11 18 mph 1018.8mb 79f 77f
6:50pm 4.5ft 12s 7s 7 9 mph 1018.9mb 79f 78f
5:50pm 5ft 11s 7s 9 11 mph 1019.2mb 79f 77f
4:50pm 4.5ft 8s 7s 9 11 mph 1019.7mb 79f 77f
3:50pm 4.5ft 11s 7s 7 9 mph 1020.4mb 78f 78f
2:50pm 4.5ft 11s 7s 7 9 mph 1020.7mb 78f 77f
1:50pm 4.5ft 9s 7s 9 13 mph 1020.6mb 78f 77f
12:50pm 4.5ft 9s 7s 11 13 mph 1020.7mb 78f 77f
11:50am 4.5ft 8s 7s 11 13 mph 1020.4mb 78f 77f
10:50am 4.5ft 8s 7s 13 16 mph 1019.8mb 78f 77f
9:50am 4ft 8s 7s 9 11 mph 1019.5mb 78f 76f
8:50am 4ft 8s 7s 7 9 mph 1019.3mb 78f 76f
7:50am 4ft 8s 7s 7 9 mph 1019mb 78f 76f
6:50am 4.5ft 9s 7s 7 9 mph 1019.1mb 78f 76f
5:50am 4.5ft 10s 7s 7 9 mph 1019.6mb 78f 76f
4:50am 4.5ft 9s 6s 9 11 mph 1020.2mb 78f 77f
3:50am 4ft 9s 6s 7 9 mph 1020.8mb 78f 77f
2:50am 4.5ft 9s 6s 9 11 mph 1021mb 78f 77f
1:50am 4.5ft 10s 7s 9 11 mph 1021.3mb 78f 77f
12:50am 4.5ft 9s 7s 9 11 mph 1021.2mb 78f 77f
Tue 03/24 11:50pm 4ft 9s 6s 9 11 mph 1020.8mb 78f 77f
10:50pm 4.5ft 10s 7s 9 11 mph 1020.5mb 78f 77f
9:50pm 4.5ft 10s 7s 9 11 mph 1020.1mb 79f 77f
8:50pm 4ft 11s 6s 9 11 mph 1019.6mb 79f 78f
7:50pm 4.5ft 9s 7s 9 11 mph 1019.2mb 79f 78f
6:50pm 4.5ft 9s 7s 9 11 mph 1019.4mb 79f 78f
5:50pm 4.5ft 9s 6s 11
mph
1020mb 79f 78f
4:50pm 4.5ft 10s 6s 9 13 mph 1020.4mb 78f 78f
3:50pm 4.5ft 8s 6s 13 16 mph 1020.7mb 78f 78f
2:50pm 4.5ft 9s 6s 13 16 mph 1021.1mb 78f 78f
1:50pm 4.5ft 9s 6s 13 16 mph 1021mb 78f 78f
12:50pm 4ft 8s 6s 11 13 mph 1021.2mb 78f 77f
11:50am 4.5ft 9s 6s 11 13 mph 1020.8mb 78f 77f
10:50am 3.5ft 10s 6s 13 16 mph 1019.9mb 78f 77f
9:50am 4.5ft 9s 6s 13 16 mph 1019.3mb 78f 76f
8:50am 4ft 8s 6s 11 13 mph 1019.1mb 78f 77f
7:50am 4ft 9s 6s 11 13 mph 1018.9mb 78f 76f
6:50am 3.5ft 9s 6s 11 13 mph 1019mb 78f 77f
5:50am 4ft 9s 6s 9 11 mph 1019.3mb 78f 77f
4:50am 3.5ft 8s 6s 9 11 mph 1020.1mb 78f 77f
3:50am 4ft 8s 6s 9 11 mph 1020.4mb 78f 77f
2:50am 4ft 8s 6s 9 11 mph 1020.5mb 78f 77f
1:50am 4.5ft 8s 6s 11 13 mph 1020.6mb 78f 77f
12:50am 4ft 8s 6s 9 11 mph 1020.4mb 78f 77f
Mon 03/23 11:50pm 4ft 8s 6s 11 13 mph 1019.6mb 78f 77f
10:50pm 4.5ft 8s 6s 11 13 mph 1019mb 78f 77f
9:50pm 4.5ft 8s 6s 9 13 mph 1018.4mb 78f 78f
8:50pm 4.5ft 9s 6s 11 13 mph 1018mb 78f 78f
7:50pm 4ft 8s 6s 11 13 mph 1018mb 78f 78f
6:50pm 4ft 8s 6s 11 13 mph 1018mb 78f 78f
5:50pm 4.5ft 8s 6s 11 13 mph 1018.3mb 78f 78f
4:50pm 4.5ft 8s 6s 11 13 mph 1018.7mb 78f 78f
3:50pm 4.5ft 9s 6s 13 16 mph 1019.3mb 78f 77f
2:50pm 4.5ft 10s 6s 13 16 mph 1019.5mb 78f 77f
1:50pm 4.5ft 8s 7s 13 16 mph 1019.7mb 78f 77f
12:50pm 5ft 10s 7s 11 16 mph 1019.3mb 78f 77f
11:50am 4.5ft 9s 7s 11 13 mph 1019mb 78f 77f
10:50am 5ft 8s 7s 9 13 mph 1018.4mb 78f 76f
9:50am 5ft 8s 7s 13 16 mph 1017.9mb 78f 75f
8:50am 4.5ft 8s 7s 7 9 mph 1017.6mb 78f 76f
7:50am 5ft 8s 7s 9 11 mph 1017.1mb 78f 76f
6:50am 5ft 11s 7s 9 11 mph 1017.1mb 78f 77f
5:50am 5ft 8s 7s 7 9 mph 1017.5mb 78f 76f
4:50am 5.5ft 9s 7s 9 11 mph 1017.9mb 78f 76f
3:50am 5ft 10s 7s 9 11 mph 1018.3mb 78f 77f
2:50am 6ft 8s 8s 7 9 mph 1018.6mb 78f 77f
1:50am 5.5ft 8s 8s 7 9 mph 1018.8mb 78f 77f
12:50am 5.5ft 8s 8s 4 7 mph 1018.4mb 78f 77f